CheckWX is a tool to help pilots better visualize weather data.  It is not intended as a substitute for an official pre-flight weather briefing.

00:38:13 UTC

KACJ METAR
Jimmy Carter Regional Airport
Americus, Georgia, USA
Current

48 mins ago

KACJ 162350Z AUTO 21004KT 10SM CLR 35/20 A3009 RMK AO2
Observed
Jul-16 @ 23:50 UTC
Wind
  • 210° at 4 KTS
Visibility
10 SM
Flight Rules
VFR
Cloud Levels
  • Clear skies
Temperature
35°C / 95°F
Dewpoint
20°C / 68°F
Heat Index
38°C / 100°F
Humidity
41%
Altimeter
30.09" Hg
Pressure
1018.92 hPa
Previous

1 hour ago

KACJ 162330Z AUTO 20005KT 10SM CLR 35/20 A3010 RMK AO2
Observed
Jul-16 @ 23:30 UTC
Wind
  • 200° at 5 KTS
Visibility
10 SM
Flight Rules
VFR
Cloud Levels
  • Clear skies
Temperature
35°C / 95°F
Dewpoint
20°C / 68°F
Heat Index
38°C / 100°F
Humidity
41%
Altimeter
30.1" Hg
Pressure
1019.32 hPa
Previous

1 hour ago

KACJ 162310Z AUTO 23004KT 10SM CLR 36/18 A3009 RMK AO2
Observed
Jul-16 @ 23:10 UTC
Wind
  • 230° at 4 KTS
Visibility
10 SM
Flight Rules
VFR
Cloud Levels
  • Clear skies
Temperature
36°C / 97°F
Dewpoint
18°C / 64°F
Humidity
34%
Altimeter
30.09" Hg
Pressure
1018.92 hPa